Terminal Aerodrome Forecast
Issued by NWS Wakefield, VA

Home | Current Version | Previous Version | Text Only | Print | Product List | Glossary On
Versions: 1 2 3 4 5 6 7 8 9 10 11 12 13 14 15
000
FTUS41 KAKQ 261126
TAFRIC
TAF
KRIC 261126Z 2612/2712 03008KT P6SM BKN008 OVC015
     FM261500 02010KT P6SM BKN010
     FM261800 03012KT P6SM BKN020
     FM262200 02010KT P6SM BKN035
     FM270800 36011KT P6SM BKN030=

USA.gov is the U.S. government's official web portal to all federal, state and local government web resources and services.